Terminal Aerodrome Forecast
Issued by NWS Mobile, AL

Home | Current Version | Previous Version | Text Only | Print | Product List | Glossary On
Versions: 1 2 3 4 5 6 7 8 9 10 11 12 13 14 15 16
000
FTUS44 KMOB 301759
TAFPNS
TAF
KPNS 301759Z 3018/0118 13012KT P6SM BKN012 OVC030
     FM010200 16011KT 4SM TSRA BKN015 BKN024CB BKN040
     FM010600 16010KT P6SM VCTS FEW030CB BKN070
     FM010800 17006KT 3SM BR OVC007=

USA.gov is the U.S. government's official web portal to all federal, state and local government web resources and services.